Time;durP1;ratioP1;P1;durP2;ratioP2;P2;SDS_P1;SDS_P2;PMS_P1;PMS_P2;Temp;Humidity;BMP_temperature;BMP_pressure;BME280_temperature;BME280_humidity;BME280_pressure;Samples;Min_cycle;Max_cycle;Signal;HPM_P1;HPM_P2
2023/07/05 00:01:34;;;;;;;5.45;3.70;;;20.40;1.00;;;;;;5035690;28;20170;-78
2023/07/05 00:04:00;;;;;;;6.32;3.72;;;20.30;1.00;;;;;;5036506;28;20175;-80
2023/07/05 00:06:26;;;;;;;5.43;3.92;;;20.40;1.00;;;;;;5036946;28;20202;-77
2023/07/05 00:08:52;;;;;;;5.70;3.65;;;20.30;1.00;;;;;;5036224;28;20668;-79
2023/07/05 00:11:19;;;;;;;5.95;3.80;;;20.20;1.00;;;;;;5036351;28;20665;-79
2023/07/05 00:13:44;;;;;;;5.85;3.58;;;20.00;1.00;;;;;;5036853;28;20178;-80
2023/07/05 00:16:11;;;;;;;6.85;3.88;;;20.00;1.00;;;;;;5035573;28;20256;-79
2023/07/05 00:18:37;;;;;;;7.15;3.97;;;19.90;1.00;;;;;;5035100;28;20539;-78
2023/07/05 00:21:06;;;;;;;4.32;3.50;;;19.80;1.00;;;;;;5034332;28;20199;-79
2023/07/05 00:23:35;;;;;;;5.35;4.03;;;19.80;1.00;;;;;;5036036;28;20170;-79
2023/07/05 00:26:01;;;;;;;4.15;3.50;;;19.80;1.00;;;;;;5034302;28;20170;-78
2023/07/05 00:28:27;;;;;;;5.47;3.60;;;19.70;1.00;;;;;;5034489;28;20665;-79
2023/07/05 00:30:53;;;;;;;5.05;3.85;;;19.60;1.00;;;;;;5034836;28;20209;-79
2023/07/05 00:33:18;;;;;;;3.72;3.17;;;19.70;1.00;;;;;;5034296;28;20182;-79
2023/07/05 00:35:50;;;;;;;6.13;3.65;;;19.70;1.00;;;;;;5033465;28;20176;-79
2023/07/05 00:38:17;;;;;;;6.43;3.53;;;19.60;1.00;;;;;;5034674;28;20225;-79
2023/07/05 00:40:43;;;;;;;4.32;3.42;;;19.60;1.00;;;;;;5032739;28;20558;-79
2023/07/05 00:43:10;;;;;;;5.97;3.55;;;19.60;1.00;;;;;;5034039;28;20186;-79
2023/07/05 00:45:59;;;;;;;4.28;3.30;;;19.60;1.00;;;;;;5033344;28;20175;-81
2023/07/05 00:48:52;;;;;;;4.25;3.58;;;19.60;1.00;;;;;;5032507;28;20166;-79
2023/07/05 00:51:26;;;;;;;4.35;3.33;;;19.70;1.00;;;;;;5033350;28;20206;-78
2023/07/05 00:53:55;;;;;;;3.77;3.37;;;19.70;1.00;;;;;;5033472;28;20174;-79
2023/07/05 00:56:26;;;;;;;4.93;3.47;;;19.70;1.00;;;;;;5037510;28;20198;-79
2023/07/05 00:58:52;;;;;;;6.47;3.40;;;19.70;1.00;;;;;;5038422;28;20166;-78
2023/07/05 01:01:19;;;;;;;4.93;3.40;;;19.70;1.00;;;;;;5034517;28;20256;-78
2023/07/05 01:03:50;;;;;;;4.82;3.63;;;19.60;4.70;;;;;;5037689;28;20224;-79
2023/07/05 01:06:16;;;;;;;4.87;3.07;;;19.60;73.20;;;;;;5037317;28;20166;-79
2023/07/05 01:08:42;;;;;;;4.10;3.13;;;19.50;59.60;;;;;;5036971;28;20171;-78
2023/07/05 01:11:12;;;;;;;4.60;2.88;;;19.60;63.50;;;;;;5036545;28;20228;-79
2023/07/05 01:13:46;;;;;;;4.40;3.20;;;19.60;99.90;;;;;;5037415;28;20182;-79
2023/07/05 01:16:25;;;;;;;3.80;3.07;;;19.60;99.90;;;;;;5036082;28;20214;-78
2023/07/05 01:19:20;;;;;;;5.05;3.28;;;19.60;99.90;;;;;;5036978;28;20589;-78
2023/07/05 01:21:55;;;;;;;4.25;3.00;;;19.60;99.90;;;;;;5034221;28;20182;-79
2023/07/05 01:24:59;;;;;;;4.43;2.83;;;19.60;99.90;;;;;;5036330;28;20166;-79
2023/07/05 01:27:52;;;;;;;6.10;2.90;;;19.60;99.90;;;;;;4995768;28;20624;-77
2023/07/05 01:30:45;;;;;;;3.85;3.10;;;19.50;99.90;;;;;;5035501;28;20294;-79
2023/07/05 01:33:58;;;;;;;4.73;2.90;;;19.50;99.90;;;;;;5035605;28;20165;-79
2023/07/05 01:36:25;;;;;;;5.93;3.17;;;19.40;99.90;;;;;;4979639;28;20597;-79
2023/07/05 01:38:51;;;;;;;3.78;3.05;;;19.40;1.00;;;;;;5028728;28;20645;-79
2023/07/05 01:41:24;;;;;;;4.75;3.10;;;19.30;1.00;;;;;;5036087;28;20660;-79
2023/07/05 01:43:50;;;;;;;4.22;3.15;;;19.30;1.00;;;;;;5036725;28;20162;-79
2023/07/05 01:46:15;;;;;;;4.25;3.33;;;19.30;1.00;;;;;;5036637;28;20185;-78
2023/07/05 01:48:59;;;;;;;4.47;3.10;;;19.30;11.20;;;;;;5035807;28;20174;-78
2023/07/05 01:51:41;;;;;;;4.70;3.40;;;19.20;1.00;;;;;;5035321;28;20190;-78
2023/07/05 01:54:27;;;;;;;8.73;3.70;;;19.10;99.90;;;;;;5035659;28;20171;-79
2023/07/05 01:56:58;;;;;;;5.13;3.50;;;18.80;99.90;;;;;;5035785;28;20198;-79
2023/07/05 01:59:28;;;;;;;6.93;3.93;;;18.60;1.00;;;;;;5039157;28;20281;-78
2023/07/05 02:01:58;;;;;;;7.37;3.90;;;18.40;1.00;;;;;;5037205;28;20178;-77
2023/07/05 02:04:26;;;;;;;5.50;3.83;;;18.20;1.00;;;;;;5039909;28;20209;-77
2023/07/05 02:06:53;;;;;;;6.10;3.73;;;18.00;1.00;;;;;;5039017;28;20182;-78
2023/07/05 02:09:19;;;;;;;6.00;3.80;;;17.80;9.60;;;;;;5038885;28;20194;-77
2023/07/05 02:11:44;;;;;;;3.90;3.50;;;17.70;1.00;;;;;;5039184;28;20182;-78
2023/07/05 02:14:11;;;;;;;4.67;3.23;;;17.50;1.00;;;;;;5039117;28;20193;-78
2023/07/05 02:16:38;;;;;;;5.37;3.47;;;17.40;1.00;;;;;;5038810;28;20220;-78
2023/07/05 02:19:05;;;;;;;3.73;3.17;;;17.30;1.00;;;;;;5038272;28;20201;-78
2023/07/05 02:21:31;;;;;;;3.87;3.17;;;17.30;89.20;;;;;;5038860;28;20181;-78
2023/07/05 02:23:56;;;;;;;5.73;3.43;;;17.30;99.90;;;;;;5037813;28;20174;-78
2023/07/05 02:26:22;;;;;;;4.77;3.03;;;17.20;99.90;;;;;;5038698;28;20653;-78
2023/07/05 02:28:48;;;;;;;5.83;3.50;;;17.10;99.90;;;;;;5037408;28;20174;-77
2023/07/05 02:31:13;;;;;;;4.63;3.47;;;17.10;99.90;;;;;;5037308;28;20198;-78
2023/07/05 02:33:40;;;;;;;5.83;3.60;;;17.20;99.90;;;;;;5037441;28;20268;-78
2023/07/05 02:36:11;;;;;;;6.20;3.87;;;17.10;99.90;;;;;;5036716;28;20296;-77
2023/07/05 02:38:37;;;;;;;5.80;3.50;;;17.00;99.90;;;;;;5037582;28;20178;-78
2023/07/05 02:41:02;;;;;;;5.63;3.60;;;16.90;99.90;;;;;;5037282;28;20194;-78
2023/07/05 02:43:28;;;;;;;4.03;3.30;;;16.90;99.90;;;;;;5037219;28;20182;-78
2023/07/05 02:45:53;;;;;;;5.63;3.80;;;16.80;99.90;;;;;;5036141;28;20197;-77
2023/07/05 02:48:19;;;;;;;6.97;3.87;;;16.80;99.90;;;;;;5035895;28;20178;-78
2023/07/05 02:50:44;;;;;;;5.47;3.23;;;16.90;99.90;;;;;;5034862;28;20214;-77
2023/07/05 02:53:10;;;;;;;5.83;3.70;;;16.80;99.90;;;;;;5036428;28;20197;-77
2023/07/05 02:55:35;;;;;;;4.37;3.10;;;16.70;99.90;;;;;;5035045;28;20174;-78
2023/07/05 02:58:01;;;;;;;4.33;3.13;;;16.70;99.90;;;;;;5034291;28;20178;-78
2023/07/05 03:00:29;;;;;;;5.60;3.47;;;16.70;99.90;;;;;;5033590;28;20208;-78
2023/07/05 03:02:55;;;;;;;3.20;2.90;;;16.60;99.90;;;;;;5033933;28;20170;-78
2023/07/05 03:05:21;;;;;;;3.90;3.03;;;16.70;99.90;;;;;;5034485;28;20174;-77
2023/07/05 03:07:46;;;;;;;4.10;3.10;;;16.60;99.90;;;;;;5036654;28;20224;-77
2023/07/05 03:10:12;;;;;;;5.63;3.20;;;16.60;99.90;;;;;;5038588;28;20194;-77
2023/07/05 03:12:39;;;;;;;4.10;2.90;;;16.60;99.90;;;;;;5039607;28;20174;-80
2023/07/05 03:15:05;;;;;;;4.47;2.90;;;16.60;99.90;;;;;;5041140;28;20190;-78
2023/07/05 03:17:32;;;;;;;4.07;2.80;;;16.50;99.90;;;;;;5039542;28;20194;-78
2023/07/05 03:19:59;;;;;;;3.73;2.63;;;16.60;99.90;;;;;;5039946;28;20194;-77
2023/07/05 03:22:26;;;;;;;4.20;3.30;;;16.60;99.90;;;;;;5040343;28;20254;-78
2023/07/05 03:24:51;;;;;;;4.77;3.50;;;16.60;99.90;;;;;;5039666;28;20179;-77
2023/07/05 03:27:18;;;;;;;4.30;3.17;;;16.50;99.90;;;;;;5038922;28;20253;-77
2023/07/05 03:29:44;;;;;;;3.63;3.07;;;16.50;99.90;;;;;;5038904;28;20206;-77
2023/07/05 03:32:09;;;;;;;3.50;2.73;;;16.60;99.90;;;;;;5039671;28;20174;-77
2023/07/05 03:34:36;;;;;;;4.17;3.03;;;16.60;99.90;;;;;;5038818;28;20340;-78
2023/07/05 03:37:02;;;;;;;3.47;2.47;;;16.60;99.90;;;;;;5038201;28;20209;-78
2023/07/05 03:39:27;;;;;;;3.00;2.30;;;16.60;99.90;;;;;;5038252;28;20198;-78
2023/07/05 03:41:53;;;;;;;2.43;2.13;;;16.60;99.90;;;;;;5036910;28;20202;-79
2023/07/05 03:44:22;;;;;;;2.90;2.03;;;16.60;99.90;;;;;;5038604;28;20175;-78
2023/07/05 03:46:49;;;;;;;3.63;1.90;;;16.60;99.90;;;;;;5036832;28;20240;-78
2023/07/05 03:49:15;;;;;;;2.07;1.83;;;16.70;99.90;;;;;;5037006;28;20182;-77
2023/07/05 03:51:40;;;;;;;2.43;1.87;;;16.70;99.90;;;;;;5039067;28;20166;-78
2023/07/05 03:54:06;;;;;;;2.00;1.70;;;16.80;99.90;;;;;;5040498;28;20225;-78
2023/07/05 03:56:34;;;;;;;1.97;1.60;;;16.80;99.90;;;;;;5040444;28;20252;-77
2023/07/05 03:59:00;;;;;;;2.80;1.60;;;16.90;99.90;;;;;;5040878;28;20178;-79
2023/07/05 04:01:27;;;;;;;1.83;1.50;;;17.00;99.90;;;;;;5037871;28;20174;-78
2023/07/05 04:03:55;;;;;;;2.60;1.53;;;17.00;99.90;;;;;;5040935;28;20181;-77
2023/07/05 04:06:23;;;;;;;1.60;1.30;;;17.00;99.90;;;;;;5041410;28;20178;-78
2023/07/05 04:08:49;;;;;;;2.73;1.50;;;17.00;99.90;;;;;;5040645;28;20182;-77
2023/07/05 04:11:14;;;;;;;3.47;1.67;;;17.00;99.90;;;;;;5040182;28;20210;-80
2023/07/05 04:13:40;;;;;;;2.33;1.70;;;17.00;84.60;;;;;;5040176;28;20174;-78
2023/07/05 04:16:10;;;;;;;2.10;1.77;;;17.10;99.90;;;;;;5040331;28;20202;-77
2023/07/05 04:18:36;;;;;;;1.90;1.70;;;17.10;99.90;;;;;;5039011;28;20175;-78
2023/07/05 04:21:03;;;;;;;1.80;1.60;;;17.10;99.90;;;;;;5037773;28;20198;-77
2023/07/05 04:23:28;;;;;;;2.50;1.77;;;17.10;99.90;;;;;;5039182;28;20201;-80
2023/07/05 04:26:01;;;;;;;2.13;1.90;;;17.10;99.90;;;;;;5040060;28;20208;-78
2023/07/05 04:28:28;;;;;;;3.37;1.90;;;17.10;99.90;;;;;;5040500;28;20174;-78
2023/07/05 04:30:54;;;;;;;2.83;2.10;;;17.20;99.90;;;;;;5039292;28;20203;-78
2023/07/05 04:33:19;;;;;;;2.70;1.77;;;17.10;99.90;;;;;;5039961;28;20174;-76
2023/07/05 04:35:46;;;;;;;2.30;2.07;;;17.10;99.90;;;;;;5039605;28;20166;-78
2023/07/05 04:38:12;;;;;;;2.47;2.00;;;17.10;99.90;;;;;;5039176;28;20171;-78
2023/07/05 04:40:38;;;;;;;2.63;2.10;;;17.20;99.90;;;;;;5039511;28;20194;-78
2023/07/05 04:43:03;;;;;;;2.60;1.90;;;17.20;99.90;;;;;;5038605;28;20242;-78
2023/07/05 04:45:29;;;;;;;3.47;2.07;;;17.10;99.90;;;;;;5038907;28;20181;-78
2023/07/05 04:47:55;;;;;;;3.60;2.17;;;17.10;99.90;;;;;;5038473;28;20200;-77
2023/07/05 04:50:20;;;;;;;2.67;2.20;;;17.10;99.90;;;;;;5038152;28;20214;-78
2023/07/05 04:52:46;;;;;;;2.70;2.13;;;17.10;99.90;;;;;;5038768;28;20551;-78
2023/07/05 04:55:11;;;;;;;4.67;2.30;;;17.10;99.90;;;;;;5038709;28;20238;-78
2023/07/05 04:57:37;;;;;;;3.30;2.30;;;17.00;99.90;;;;;;5039488;28;20201;-80
2023/07/05 05:00:03;;;;;;;3.40;2.50;;;17.00;99.90;;;;;;5037345;28;20286;-78
2023/07/05 05:02:29;;;;;;;2.53;2.10;;;16.90;99.90;;;;;;5039586;28;20174;-80
2023/07/05 05:04:54;;;;;;;3.13;2.37;;;16.70;99.90;;;;;;5039151;28;20535;-83
2023/07/05 05:07:20;;;;;;;3.07;2.40;;;16.70;99.90;;;;;;5041431;28;20197;-79
2023/07/05 05:09:45;;;;;;;3.03;2.60;;;16.60;99.90;;;;;;5041196;28;20198;-80
2023/07/05 05:12:11;;;;;;;4.03;2.33;;;16.50;99.90;;;;;;5040025;28;20645;-80
2023/07/05 05:14:36;;;;;;;2.67;2.37;;;16.50;99.90;;;;;;5039870;28;20185;-83
2023/07/05 05:17:02;;;;;;;3.80;2.60;;;16.40;99.90;;;;;;5039699;28;20199;-81
2023/07/05 05:19:28;;;;;;;3.17;2.70;;;16.40;99.90;;;;;;5039261;28;20240;-80
2023/07/05 05:21:53;;;;;;;2.57;2.33;;;16.40;99.90;;;;;;5039507;28;20178;-80
2023/07/05 05:24:19;;;;;;;3.67;2.70;;;16.40;99.90;;;;;;5040416;28;20185;-81
2023/07/05 05:26:46;;;;;;;3.73;2.60;;;16.40;99.90;;;;;;5041525;28;20637;-79
2023/07/05 05:29:12;;;;;;;3.83;2.77;;;16.50;99.90;;;;;;5043083;28;20182;-80
2023/07/05 05:31:38;;;;;;;3.40;2.80;;;16.50;99.90;;;;;;5039832;28;20179;-80
2023/07/05 05:34:03;;;;;;;3.83;3.00;;;16.60;99.90;;;;;;5039477;28;20294;-81
2023/07/05 05:36:29;;;;;;;3.03;2.63;;;16.60;99.90;;;;;;5039276;28;20252;-80
2023/07/05 05:38:54;;;;;;;4.60;2.60;;;16.70;99.90;;;;;;5039308;28;20181;-80
2023/07/05 05:41:20;;;;;;;4.33;2.53;;;16.70;99.90;;;;;;5037169;28;20186;-80
2023/07/05 05:43:45;;;;;;;2.23;2.03;;;16.70;99.90;;;;;;5042180;28;20181;-80
2023/07/05 05:46:11;;;;;;;4.60;2.60;;;16.80;99.90;;;;;;5037804;28;20234;-79
2023/07/05 05:48:37;;;;;;;3.20;2.50;;;16.80;99.90;;;;;;5036866;28;20652;-79
2023/07/05 05:51:02;;;;;;;3.60;2.53;;;16.80;99.90;;;;;;5038087;28;20210;-80
2023/07/05 05:53:28;;;;;;;2.87;2.47;;;16.80;99.90;;;;;;5039358;28;20335;-79
2023/07/05 05:55:57;;;;;;;4.03;2.80;;;16.90;99.90;;;;;;5036825;28;20189;-79
2023/07/05 05:58:23;;;;;;;3.03;2.70;;;17.10;99.90;;;;;;5034115;28;20540;-80
2023/07/05 06:00:49;;;;;;;3.23;2.73;;;17.10;99.90;;;;;;5032816;28;20289;-80
2023/07/05 06:03:14;;;;;;;3.93;2.87;;;17.20;99.90;;;;;;5034487;28;20233;-80
2023/07/05 06:05:41;;;;;;;5.13;2.60;;;17.20;99.90;;;;;;5033472;28;20268;-78
2023/07/05 06:08:07;;;;;;;3.60;2.60;;;17.20;99.90;;;;;;5033845;28;20170;-77
2023/07/05 06:10:33;;;;;;;4.10;2.50;;;17.40;99.90;;;;;;5036145;28;20189;-82
2023/07/05 06:12:59;;;;;;;3.90;2.60;;;17.60;99.90;;;;;;5036515;28;20182;-83
2023/07/05 06:15:25;;;;;;;3.20;2.60;;;17.70;99.90;;;;;;5037160;28;20272;-80
2023/07/05 06:17:53;;;;;;;5.67;2.67;;;17.70;99.90;;;;;;5042244;28;20214;-81
2023/07/05 06:20:19;;;;;;;3.07;2.40;;;17.70;99.90;;;;;;5045526;28;20194;-83
2023/07/05 06:22:44;;;;;;;2.63;2.23;;;17.70;99.90;;;;;;5042469;28;20249;-83
2023/07/05 06:25:10;;;;;;;3.20;2.70;;;17.70;99.90;;;;;;5040095;28;20253;-81
2023/07/05 06:27:36;;;;;;;4.63;2.40;;;17.70;99.90;;;;;;5040128;28;20182;-83
2023/07/05 06:30:03;;;;;;;5.00;3.07;;;17.60;99.90;;;;;;5040949;28;20697;-84
2023/07/05 06:32:29;;;;;;;4.07;2.70;;;17.60;99.90;;;;;;5040353;28;20170;-82
2023/07/05 06:34:54;;;;;;;5.20;2.50;;;17.40;99.90;;;;;;5040013;28;20232;-82
2023/07/05 06:37:20;;;;;;;4.47;2.50;;;17.30;99.90;;;;;;5037926;28;20244;-82
2023/07/05 06:39:46;;;;;;;3.67;2.53;;;17.10;99.90;;;;;;5036789;28;20194;-81
2023/07/05 06:42:11;;;;;;;3.73;2.57;;;17.10;99.90;;;;;;5036259;28;20167;-79
2023/07/05 06:44:37;;;;;;;4.37;2.80;;;17.10;99.90;;;;;;5035642;28;20199;-80
2023/07/05 06:47:02;;;;;;;3.80;2.77;;;17.20;99.90;;;;;;5036747;28;20719;-82
2023/07/05 06:49:28;;;;;;;4.23;2.47;;;17.20;99.90;;;;;;5035573;28;20298;-83
2023/07/05 06:51:54;;;;;;;3.47;2.60;;;17.20;99.90;;;;;;5037522;28;20186;-82
2023/07/05 06:54:22;;;;;;;3.63;2.70;;;17.30;99.90;;;;;;5039062;28;20178;-83
2023/07/05 06:56:48;;;;;;;6.33;2.70;;;17.20;99.90;;;;;;5037175;28;20229;-82
2023/07/05 06:59:13;;;;;;;5.53;2.90;;;17.20;99.90;;;;;;5036294;28;20175;-81
2023/07/05 07:01:39;;;;;;;3.47;2.40;;;17.20;99.90;;;;;;5035806;28;20170;-83
2023/07/05 07:04:05;;;;;;;2.73;2.47;;;17.20;99.90;;;;;;5035913;28;20174;-82
2023/07/05 07:06:31;;;;;;;3.30;2.57;;;17.20;99.90;;;;;;5038252;28;20229;-81
2023/07/05 07:08:57;;;;;;;4.43;2.60;;;17.20;99.90;;;;;;5038592;28;20181;-83
2023/07/05 07:11:22;;;;;;;3.70;2.20;;;17.10;99.90;;;;;;5034883;28;20178;-82
2023/07/05 07:13:48;;;;;;;3.70;2.50;;;17.10;99.90;;;;;;5035260;28;20676;-82
2023/07/05 07:16:15;;;;;;;2.80;2.50;;;17.00;99.90;;;;;;5036073;28;20206;-82
2023/07/05 07:18:48;;;;;;;4.00;2.47;;;17.00;99.90;;;;;;5036261;28;20174;-81
2023/07/05 07:21:16;;;;;;;3.43;2.30;;;17.00;99.90;;;;;;5033919;28;20225;-81
2023/07/05 07:23:44;;;;;;;3.07;2.53;;;16.90;99.90;;;;;;5035956;28;20188;-81
2023/07/05 07:26:12;;;;;;;2.90;2.20;;;16.80;99.90;;;;;;5034496;28;20563;-81
2023/07/05 07:28:38;;;;;;;3.47;2.50;;;16.90;99.90;;;;;;5034517;28;20175;-82
2023/07/05 07:31:25;;;;;;;2.97;2.23;;;17.00;99.90;;;;;;5034562;28;20201;-82
2023/07/05 07:33:52;;;;;;;3.33;2.20;;;17.20;99.90;;;;;;5036564;28;20201;-82
2023/07/05 07:36:21;;;;;;;3.90;2.57;;;17.40;99.90;;;;;;5037213;28;20190;-82
2023/07/05 07:38:47;;;;;;;3.50;2.50;;;17.60;99.90;;;;;;5035256;28;20197;-82
2023/07/05 07:41:19;;;;;;;2.80;2.50;;;17.70;99.90;;;;;;5036105;28;20573;-82
2023/07/05 07:43:45;;;;;;;3.40;2.30;;;17.80;99.90;;;;;;5035106;28;20174;-82
2023/07/05 07:46:16;;;;;;;3.20;2.40;;;17.90;99.90;;;;;;5036221;28;20174;-82
2023/07/05 07:48:45;;;;;;;3.37;2.33;;;18.00;99.90;;;;;;5035286;28;20187;-82
2023/07/05 07:51:11;;;;;;;3.10;2.33;;;18.10;99.90;;;;;;5036132;28;20210;-84
2023/07/05 07:53:36;;;;;;;2.93;2.20;;;18.20;99.90;;;;;;5035126;28;20179;-81
2023/07/05 07:56:13;;;;;;;3.33;2.50;;;18.30;99.90;;;;;;5035007;28;20649;-82
2023/07/05 07:58:40;;;;;;;3.07;2.67;;;18.30;99.90;;;;;;5034991;28;20300;-83
2023/07/05 08:01:18;;;;;;;3.37;2.50;;;18.40;99.90;;;;;;5036285;28;20197;-82
2023/07/05 08:03:44;;;;;;;4.03;2.93;;;18.50;99.90;;;;;;5036035;28;20549;-81
2023/07/05 08:06:11;;;;;;;4.17;2.67;;;18.60;99.90;;;;;;5037594;28;20170;-82
2023/07/05 08:08:38;;;;;;;3.90;3.07;;;18.70;99.90;;;;;;5038552;28;20201;-81
2023/07/05 08:11:05;;;;;;;4.03;3.20;;;18.80;1.00;;;;;;5035534;28;20293;-82
2023/07/05 08:13:31;;;;;;;4.17;3.17;;;18.90;76.90;;;;;;5036611;28;20202;-81
2023/07/05 08:16:00;;;;;;;5.20;3.23;;;18.90;1.00;;;;;;5039931;28;20182;-79
2023/07/05 08:18:27;;;;;;;8.33;3.30;;;18.70;99.90;;;;;;5038029;28;20376;-81
2023/07/05 08:20:53;;;;;;;3.80;3.23;;;18.60;99.90;;;;;;5037780;28;20190;-81
2023/07/05 08:23:19;;;;;;;5.63;3.73;;;18.40;99.90;;;;;;5039252;28;20174;-81
2023/07/05 08:25:45;;;;;;;3.83;2.77;;;18.30;99.90;;;;;;5038625;28;20171;-81
2023/07/05 08:28:13;;;;;;;6.17;3.53;;;18.30;1.00;;;;;;5041855;28;20244;-81
2023/07/05 08:30:40;;;;;;;3.60;2.53;;;18.20;1.00;;;;;;5040764;28;20202;-81
2023/07/05 08:33:08;;;;;;;5.07;2.80;;;18.20;1.00;;;;;;5041914;28;20178;-79
2023/07/05 08:35:34;;;;;;;4.03;2.90;;;18.10;99.90;;;;;;5035984;28;20178;-79
2023/07/05 08:38:00;;;;;;;5.67;3.20;;;18.00;99.90;;;;;;5039136;28;20217;-79
2023/07/05 08:40:31;;;;;;;4.60;2.77;;;17.90;1.00;;;;;;5041349;28;20211;-79
2023/07/05 08:43:04;;;;;;;4.40;2.90;;;18.00;85.70;;;;;;5040148;28;20181;-80
2023/07/05 08:45:37;;;;;;;5.07;2.77;;;18.20;1.00;;;;;;5041479;28;20178;-84
2023/07/05 08:48:05;;;;;;;4.37;3.20;;;18.30;1.00;;;;;;5043018;28;20221;-80
2023/07/05 08:50:37;;;;;;;5.80;3.20;;;18.60;1.00;;;;;;5042186;28;20210;-80
2023/07/05 08:53:19;;;;;;;4.27;2.93;;;18.80;99.90;;;;;;5041874;28;20179;-80
2023/07/05 08:56:13;;;;;;;4.30;2.93;;;18.90;99.90;;;;;;5047672;28;20226;-80
2023/07/05 08:58:41;;;;;;;3.80;2.93;;;18.80;1.00;;;;;;5047738;28;20166;-80
2023/07/05 09:01:17;;;;;;;4.67;3.00;;;18.80;1.00;;;;;;5045900;28;20261;-80
2023/07/05 09:03:43;;;;;;;4.27;3.10;;;19.00;1.00;;;;;;5046705;28;20671;-80
2023/07/05 09:06:18;;;;;;;5.97;3.23;;;18.70;99.90;;;;;;5046381;28;20170;-81
2023/07/05 09:08:55;;;;;;;5.40;3.13;;;18.40;1.00;;;;;;5046156;28;20665;-82
2023/07/05 09:11:25;;;;;;;4.90;2.83;;;18.40;7.60;;;;;;5047160;28;20253;-79
2023/07/05 09:14:01;;;;;;;3.30;2.60;;;18.40;1.00;;;;;;5047286;28;20170;-80
2023/07/05 09:16:41;;;;;;;3.47;2.60;;;18.60;1.00;;;;;;5046079;28;20205;-79
2023/07/05 09:19:33;;;;;;;6.83;2.90;;;18.90;99.90;;;;;;5049284;28;20217;-81
2023/07/05 09:22:04;;;;;;;5.37;2.70;;;19.00;1.00;;;;;;5049105;28;20234;-82
2023/07/05 09:24:34;;;;;;;3.40;2.70;;;19.40;1.00;;;;;;5049484;28;20166;-81
2023/07/05 09:27:14;;;;;;;3.80;2.80;;;19.40;2.70;;;;;;5050525;28;20173;-81
2023/07/05 09:29:47;;;;;;;5.50;3.00;;;19.40;1.00;;;;;;5050604;28;20198;-83
2023/07/05 09:32:16;;;;;;;4.80;3.00;;;19.50;1.00;;;;;;5049831;28;20178;-81
2023/07/05 09:34:48;;;;;;;3.43;2.87;;;19.50;1.00;;;;;;5050247;28;20241;-82
2023/07/05 09:37:21;;;;;;;4.30;3.17;;;19.80;1.00;;;;;;5052444;28;20221;-82
2023/07/05 09:39:54;;;;;;;4.77;2.87;;;19.80;1.00;;;;;;5051395;28;20186;-80
2023/07/05 09:42:27;;;;;;;5.00;2.90;;;19.60;1.00;;;;;;5047055;28;20170;-81
2023/07/05 09:44:52;;;;;;;3.83;2.93;;;19.10;1.00;;;;;;5044985;28;20178;-78
2023/07/05 09:47:20;;;;;;;4.53;2.77;;;19.20;13.40;;;;;;5035442;28;20180;-79
2023/07/05 09:49:46;;;;;;;4.20;3.07;;;19.00;95.50;;;;;;5033318;28;20217;-78
2023/07/05 09:52:13;;;;;;;3.73;2.80;;;18.70;1.00;;;;;;5045370;28;20170;-80
2023/07/05 09:54:40;;;;;;;4.70;2.73;;;18.60;99.90;;;;;;5049450;28;20178;-80
2023/07/05 09:57:09;;;;;;;4.20;2.90;;;18.50;99.90;;;;;;5050417;28;20261;-81
2023/07/05 09:59:37;;;;;;;4.43;2.30;;;18.70;1.00;;;;;;5047824;28;20205;-82
2023/07/05 10:02:14;;;;;;;4.47;2.17;;;19.10;81.80;;;;;;5046982;28;20197;-82
2023/07/05 10:04:56;;;;;;;4.47;2.20;;;19.20;1.00;;;;;;5049420;28;20170;-81
2023/07/05 10:07:25;;;;;;;3.90;2.40;;;19.00;1.00;;;;;;5037058;28;20232;-79
2023/07/05 10:10:09;;;;;;;3.53;2.20;;;19.10;99.90;;;;;;5035097;28;20209;-80
2023/07/05 10:12:37;;;;;;;4.60;2.00;;;19.40;1.00;;;;;;5038577;28;20185;-81
2023/07/05 10:15:21;;;;;;;3.33;2.03;;;19.60;1.00;;;;;;5040977;28;20174;-79
2023/07/05 10:17:48;;;;;;;2.27;1.87;;;19.90;99.90;;;;;;5040215;28;20210;-80
2023/07/05 10:20:23;;;;;;;4.07;2.00;;;19.90;99.90;;;;;;5038991;28;20221;-79
2023/07/05 10:23:14;;;;;;;3.20;1.97;;;19.90;99.90;;;;;;5041808;28;20165;-79
2023/07/05 10:25:41;;;;;;;3.40;2.10;;;19.90;99.90;;;;;;5044942;28;20173;-80
2023/07/05 10:28:12;;;;;;;4.37;2.00;;;19.80;99.90;;;;;;5045465;28;20174;-79
2023/07/05 10:31:00;;;;;;;3.30;2.00;;;19.70;99.90;;;;;;5042446;28;20228;-79
2023/07/05 10:33:28;;;;;;;4.33;2.50;;;19.90;99.90;;;;;;5040841;28;20679;-81
2023/07/05 10:36:03;;;;;;;2.17;1.70;;;20.30;74.20;;;;;;5041325;28;20193;-79
2023/07/05 10:38:30;;;;;;;2.43;1.87;;;20.60;1.00;;;;;;5042987;28;20201;-80
2023/07/05 10:41:04;;;;;;;1.80;1.60;;;20.20;1.00;;;;;;5041223;28;20224;-79
2023/07/05 10:43:32;;;;;;;2.33;1.80;;;19.80;1.00;;;;;;5037692;28;20157;-79
2023/07/05 10:45:59;;;;;;;2.23;1.80;;;19.70;99.90;;;;;;5040688;28;20173;-79
2023/07/05 10:48:38;;;;;;;3.43;1.80;;;19.70;99.90;;;;;;5039383;28;20182;-79
2023/07/05 10:51:04;;;;;;;2.57;1.80;;;19.60;99.90;;;;;;5041548;28;20201;-79
2023/07/05 10:53:31;;;;;;;1.63;1.53;;;19.40;99.90;;;;;;5046327;28;20243;-81
2023/07/05 10:55:56;;;;;;;3.77;1.87;;;19.40;99.90;;;;;;5043222;28;20170;-80
2023/07/05 10:58:28;;;;;;;1.83;1.60;;;19.60;1.00;;;;;;5044271;28;20185;-82
2023/07/05 11:01:00;;;;;;;3.63;1.60;;;20.10;25.10;;;;;;5045386;28;20190;-81
2023/07/05 11:03:44;;;;;;;1.73;1.50;;;20.40;61.00;;;;;;5042153;28;20163;-81
2023/07/05 11:06:12;;;;;;;6.47;4.90;;;20.80;1.00;;;;;;5041882;28;20250;-82
2023/07/05 11:08:40;;;;;;;5.47;1.60;;;20.90;43.40;;;;;;5041719;28;20171;-82
2023/07/05 11:11:15;;;;;;;1.57;1.10;;;21.30;1.00;;;;;;5040833;28;20202;-80
2023/07/05 11:13:42;;;;;;;2.67;1.50;;;21.10;1.00;;;;;;5040134;28;20188;-82
2023/07/05 11:16:14;;;;;;;2.13;1.38;;;21.00;1.00;;;;;;5042442;28;20178;-82
2023/07/05 11:18:40;;;;;;;2.53;1.70;;;21.20;1.00;;;;;;5040363;28;20163;-82
2023/07/05 11:21:39;;;;;;;2.67;1.75;;;21.40;1.00;;;;;;5041145;28;20249;-81
2023/07/05 11:24:10;;;;;;;2.83;1.70;;;20.90;1.00;;;;;;5044484;28;20233;-81
2023/07/05 11:26:42;;;;;;;2.17;1.58;;;20.40;1.00;;;;;;5044607;28;20180;-81
2023/07/05 11:29:26;;;;;;;2.73;1.57;;;20.10;1.00;;;;;;5043659;28;20182;-81
2023/07/05 11:31:52;;;;;;;3.80;1.87;;;20.10;23.80;;;;;;5041695;28;20246;-79
2023/07/05 11:34:21;;;;;;;1.83;1.37;;;20.40;1.00;;;;;;5042623;28;20713;-79
2023/07/05 11:36:48;;;;;;;3.30;1.70;;;20.30;1.00;;;;;;5041025;28;20198;-80
2023/07/05 11:39:35;;;;;;;2.97;1.53;;;20.30;1.00;;;;;;5039204;28;20178;-84
2023/07/05 11:42:16;;;;;;;1.90;1.50;;;20.00;1.00;;;;;;5036592;28;20177;-81
2023/07/05 11:44:41;;;;;;;3.03;1.50;;;20.10;1.00;;;;;;5039316;28;20171;-82
2023/07/05 11:47:08;;;;;;;4.03;1.80;;;20.60;1.00;;;;;;5038491;28;20174;-83
2023/07/05 11:52:14;;;;;;;2.17;1.50;;;20.90;1.00;;;;;;5032322;28;20210;-78
2023/07/05 11:55:04;;;;;;;3.00;1.30;;;20.60;1.00;;;;;;5034877;28;20165;-78
2023/07/05 11:57:38;;;;;;;3.27;1.87;;;20.40;1.00;;;;;;5033680;28;20210;-79
2023/07/05 12:00:18;;;;;;;2.07;1.40;;;20.50;1.00;;;;;;5034710;28;20190;-79
2023/07/05 12:03:05;;;;;;;1.80;1.40;;;20.50;1.00;;;;;;5035477;28;20169;-79
2023/07/05 12:05:33;;;;;;;1.83;1.30;;;20.60;1.00;;;;;;5033607;28;20182;-79
2023/07/05 12:08:16;;;;;;;1.83;1.40;;;20.50;1.00;;;;;;5034502;28;20721;-78
2023/07/05 12:10:58;;;;;;;1.70;1.40;;;20.50;1.00;;;;;;5049968;28;20194;-79
2023/07/05 12:13:26;;;;;;;2.70;1.20;;;20.40;1.00;;;;;;5033272;28;20583;-78
2023/07/05 12:15:53;;;;;;;2.83;1.30;;;20.80;1.00;;;;;;5033107;28;20261;-79
2023/07/05 12:18:20;;;;;;;2.65;1.20;;;21.30;1.00;;;;;;5033390;28;20189;-79
2023/07/05 12:20:54;;;;;;;1.83;1.60;;;21.50;1.00;;;;;;5032917;28;20203;-80
2023/07/05 12:23:21;;;;;;;2.15;1.13;;;21.50;1.00;;;;;;5033650;28;20171;-80
2023/07/05 12:25:52;;;;;;;2.13;1.40;;;21.70;99.90;;;;;;5034172;28;20178;-81
2023/07/05 12:28:21;;;;;;;1.88;1.40;;;22.10;99.90;;;;;;5033146;28;20264;-80
2023/07/05 12:30:47;;;;;;;2.50;1.42;;;22.00;99.90;;;;;;5031305;28;20230;-82
2023/07/05 12:33:22;;;;;;;2.40;1.20;;;21.50;99.90;;;;;;5034088;28;20206;-81
2023/07/05 12:36:04;;;;;;;2.08;1.40;;;21.50;99.90;;;;;;5032951;28;20264;-81
2023/07/05 12:38:30;;;;;;;2.90;1.50;;;21.60;99.90;;;;;;5033287;28;20182;-78
2023/07/05 12:40:55;;;;;;;2.75;1.40;;;21.90;99.90;;;;;;5031765;28;20193;-81
2023/07/05 12:43:32;;;;;;;2.15;1.40;;;22.30;99.90;;;;;;5033241;28;20261;-81
2023/07/05 12:46:19;;;;;;;2.40;1.42;;;22.30;99.90;;;;;;5033343;28;20170;-81
2023/07/05 12:48:44;;;;;;;2.55;1.50;;;22.10;99.90;;;;;;5032186;28;20281;-81
2023/07/05 12:51:10;;;;;;;2.42;1.20;;;21.90;99.90;;;;;;5032410;28;20289;-81
2023/07/05 12:53:36;;;;;;;1.92;1.30;;;22.10;99.90;;;;;;5048921;28;20206;-82
2023/07/05 12:56:10;;;;;;;2.03;1.40;;;22.20;99.90;;;;;;5032032;28;20170;-82
2023/07/05 12:58:40;;;;;;;1.52;1.25;;;22.00;99.90;;;;;;5031781;28;20177;-81
2023/07/05 13:01:12;;;;;;;1.77;1.50;;;22.00;99.90;;;;;;5031364;28;20182;-81
2023/07/05 13:03:44;;;;;;;2.10;1.35;;;22.10;99.90;;;;;;5032045;28;20171;-83
2023/07/05 13:06:10;;;;;;;1.95;1.40;;;22.20;99.90;;;;;;5031768;28;20224;-83